Time;durP1;ratioP1;P1;durP2;ratioP2;P2;SDS_P1;SDS_P2;PMS_P1;PMS_P2;Temp;Humidity;BMP_temperature;BMP_pressure;BME280_temperature;BME280_humidity;BME280_pressure;Samples;Min_cycle;Max_cycle;Signal;HPM_P1;HPM_P2
2021/09/19 00:00:46;;;;;;;3.67;2.35;;;19.70;66.50;;;;;;5055414;28;20036;-81
2021/09/19 00:03:12;;;;;;;2.80;2.40;;;19.70;66.60;;;;;;5056161;28;20380;-80
2021/09/19 00:05:38;;;;;;;2.92;2.35;;;19.70;67.30;;;;;;5038736;28;20378;-80
2021/09/19 00:08:04;;;;;;;3.28;2.35;;;19.60;66.60;;;;;;5055114;28;20131;-80
2021/09/19 00:10:30;;;;;;;3.47;2.70;;;19.60;66.60;;;;;;5056067;28;20025;-80
2021/09/19 00:12:56;;;;;;;3.47;2.50;;;19.60;66.70;;;;;;5072001;28;20036;-80
2021/09/19 00:15:22;;;;;;;3.33;2.42;;;19.60;66.70;;;;;;5056025;28;20055;-81
2021/09/19 00:17:48;;;;;;;3.35;2.70;;;19.60;66.70;;;;;;5071859;28;20032;-80
2021/09/19 00:20:15;;;;;;;3.13;2.40;;;19.60;66.70;;;;;;5072146;28;20032;-81
2021/09/19 00:22:42;;;;;;;3.30;2.50;;;19.50;66.70;;;;;;5055236;28;20016;-81
2021/09/19 00:25:10;;;;;;;3.40;2.40;;;19.50;66.70;;;;;;5055119;28;20029;-80
2021/09/19 00:27:36;;;;;;;3.05;2.35;;;19.50;66.70;;;;;;5055309;28;20362;-80
2021/09/19 00:30:04;;;;;;;3.50;2.50;;;19.50;66.70;;;;;;5071825;28;20054;-81
2021/09/19 00:32:30;;;;;;;3.58;2.40;;;19.50;66.80;;;;;;5042006;28;20504;-80
2021/09/19 00:34:56;;;;;;;3.30;2.50;;;19.50;66.80;;;;;;5058831;28;20056;-81
2021/09/19 00:37:22;;;;;;;3.17;2.50;;;19.40;66.80;;;;;;5075501;28;20020;-80
2021/09/19 00:39:48;;;;;;;2.60;2.25;;;19.40;66.80;;;;;;5058975;28;20063;-80
2021/09/19 00:42:14;;;;;;;3.20;2.40;;;19.40;66.80;;;;;;5075120;28;20035;-80
2021/09/19 00:44:39;;;;;;;3.40;2.35;;;19.40;66.80;;;;;;5058826;28;20496;-80
2021/09/19 00:47:05;;;;;;;3.28;2.47;;;19.40;66.90;;;;;;5075145;28;20036;-79
2021/09/19 00:49:31;;;;;;;3.80;2.70;;;19.40;66.90;;;;;;5058305;28;20046;-80
2021/09/19 00:51:57;;;;;;;2.97;2.38;;;19.30;66.90;;;;;;5075375;28;20043;-80
2021/09/19 00:54:23;;;;;;;4.20;2.53;;;19.40;66.90;;;;;;5042687;28;20112;-81
2021/09/19 00:56:55;;;;;;;4.10;2.80;;;19.30;66.90;;;;;;5058706;28;20048;-80
2021/09/19 00:59:22;;;;;;;3.03;2.42;;;19.30;67.00;;;;;;5075001;28;20501;-80
2021/09/19 01:01:52;;;;;;;3.28;2.45;;;19.30;66.90;;;;;;5058312;28;20067;-79
2021/09/19 01:04:18;;;;;;;3.55;2.47;;;19.30;67.00;;;;;;5075942;28;20021;-81
2021/09/19 01:06:44;;;;;;;3.03;2.72;;;19.30;67.60;;;;;;5058371;28;20061;-80
2021/09/19 01:09:10;;;;;;;3.97;2.70;;;19.30;67.00;;;;;;5074655;28;20052;-81
2021/09/19 01:11:36;;;;;;;3.63;2.75;;;19.20;67.00;;;;;;5058238;28;20437;-79
2021/09/19 01:14:02;;;;;;;4.18;2.72;;;19.20;67.00;;;;;;5074746;28;20171;-79
2021/09/19 01:16:28;;;;;;;3.35;2.67;;;19.20;67.00;;;;;;5041617;28;20069;-80
2021/09/19 01:18:54;;;;;;;4.13;3.03;;;19.20;67.00;;;;;;5024973;28;20123;-79
2021/09/19 01:21:21;;;;;;;3.05;2.45;;;19.20;67.10;;;;;;5058690;28;20033;-80
2021/09/19 01:24:02;;;;;;;4.53;2.72;;;19.20;67.20;;;;;;5076442;28;20173;-79
2021/09/19 01:26:29;;;;;;;3.67;2.65;;;19.10;67.20;;;;;;5074365;28;20555;-79
2021/09/19 01:28:55;;;;;;;3.25;2.60;;;19.10;67.80;;;;;;5074658;28;20165;-79
2021/09/19 01:31:22;;;;;;;3.70;2.90;;;19.10;67.20;;;;;;5074621;28;20024;-80
2021/09/19 01:33:48;;;;;;;3.67;2.78;;;19.10;67.30;;;;;;5074521;28;20029;-80
2021/09/19 01:36:14;;;;;;;4.03;2.58;;;19.10;67.30;;;;;;5041976;28;20059;-80
2021/09/19 01:38:41;;;;;;;4.25;3.00;;;19.00;67.30;;;;;;5074572;28;20028;-80
2021/09/19 01:41:06;;;;;;;3.60;2.75;;;19.00;67.30;;;;;;5058322;28;20029;-82
2021/09/19 01:43:32;;;;;;;3.88;3.00;;;19.00;67.30;;;;;;5057037;28;20469;-81
2021/09/19 01:46:00;;;;;;;3.47;2.83;;;19.00;67.30;;;;;;5074449;28;20111;-80
2021/09/19 01:48:25;;;;;;;3.85;3.05;;;19.00;67.40;;;;;;5041261;28;20042;-79
2021/09/19 01:50:51;;;;;;;3.35;2.60;;;19.00;67.40;;;;;;5057441;28;20420;-80
2021/09/19 01:53:20;;;;;;;4.28;3.10;;;19.00;67.40;;;;;;5057289;28;20459;-80
2021/09/19 01:55:46;;;;;;;4.05;3.00;;;18.90;67.40;;;;;;5057271;28;20036;-79
2021/09/19 01:58:11;;;;;;;4.15;3.15;;;18.90;67.40;;;;;;5057119;28;20082;-79
2021/09/19 02:00:40;;;;;;;3.45;2.80;;;18.90;67.40;;;;;;5041832;28;20025;-79
2021/09/19 02:03:06;;;;;;;4.32;2.97;;;18.90;67.40;;;;;;5041111;28;20099;-80
2021/09/19 02:05:32;;;;;;;3.65;2.75;;;18.90;67.50;;;;;;5074785;28;20037;-79
2021/09/19 02:07:57;;;;;;;3.65;3.00;;;18.80;67.50;;;;;;5073454;28;20052;-79
2021/09/19 02:10:23;;;;;;;3.50;2.95;;;18.90;67.50;;;;;;5057055;28;20032;-79
2021/09/19 02:12:49;;;;;;;3.75;3.13;;;18.80;67.50;;;;;;5057210;28;20028;-79
2021/09/19 02:15:16;;;;;;;3.13;2.78;;;18.80;67.50;;;;;;5057321;28;20028;-79
2021/09/19 02:17:42;;;;;;;3.92;3.17;;;18.80;67.50;;;;;;5057317;28;20038;-80
2021/09/19 02:20:11;;;;;;;4.15;3.20;;;18.80;67.60;;;;;;5057524;28;20115;-80
2021/09/19 02:22:37;;;;;;;3.53;2.63;;;18.80;67.60;;;;;;5073479;28;20449;-80
2021/09/19 02:25:05;;;;;;;4.45;3.15;;;18.80;67.60;;;;;;5056766;28;20062;-80
2021/09/19 02:27:30;;;;;;;3.75;3.00;;;18.70;67.60;;;;;;5056685;28;20040;-81
2021/09/19 02:29:56;;;;;;;4.50;3.17;;;18.70;67.60;;;;;;5056680;28;20380;-80
2021/09/19 02:32:22;;;;;;;3.83;2.85;;;18.70;67.60;;;;;;5057317;28;20090;-79
2021/09/19 02:34:48;;;;;;;3.78;3.15;;;18.70;67.70;;;;;;5074202;28;20074;-80
2021/09/19 02:37:14;;;;;;;3.63;2.90;;;18.70;67.70;;;;;;5056600;28;20496;-80
2021/09/19 02:39:40;;;;;;;4.20;3.08;;;18.70;67.70;;;;;;5056508;28;20033;-79
2021/09/19 02:42:06;;;;;;;4.35;3.22;;;18.70;67.80;;;;;;5040597;28;20119;-82
2021/09/19 02:44:32;;;;;;;4.25;3.35;;;18.70;67.80;;;;;;5056413;28;20047;-80
2021/09/19 02:46:58;;;;;;;4.05;3.17;;;18.60;67.70;;;;;;5056396;28;20032;-79
2021/09/19 02:49:24;;;;;;;4.80;3.53;;;18.60;68.40;;;;;;5056270;28;20031;-80
2021/09/19 02:51:49;;;;;;;4.53;3.35;;;18.60;67.80;;;;;;5073653;28;20024;-80
2021/09/19 02:54:15;;;;;;;4.20;3.13;;;18.60;67.80;;;;;;5056204;28;20027;-79
2021/09/19 02:56:41;;;;;;;4.78;3.47;;;18.60;67.80;;;;;;5056436;28;20025;-80
2021/09/19 02:59:06;;;;;;;4.50;3.25;;;18.50;67.80;;;;;;5056138;28;20561;-81
2021/09/19 03:01:32;;;;;;;3.78;3.05;;;18.60;67.90;;;;;;5074291;28;20032;-79
2021/09/19 03:03:58;;;;;;;4.30;3.20;;;18.50;67.80;;;;;;5039771;28;20040;-79
2021/09/19 03:06:25;;;;;;;4.40;3.55;;;18.60;68.00;;;;;;5056060;28;20044;-79
2021/09/19 03:08:51;;;;;;;4.28;3.50;;;18.50;67.90;;;;;;5039189;28;20147;-81
2021/09/19 03:11:16;;;;;;;4.35;3.40;;;18.50;67.90;;;;;;5056642;28;20115;-80
2021/09/19 03:13:42;;;;;;;3.92;3.13;;;18.50;67.90;;;;;;5039523;28;20037;-80
2021/09/19 03:16:08;;;;;;;3.83;3.10;;;18.50;68.00;;;;;;5072938;28;20029;-80
2021/09/19 03:18:34;;;;;;;4.20;3.20;;;18.50;68.00;;;;;;5073220;28;20120;-80
2021/09/19 03:21:00;;;;;;;4.75;3.33;;;18.40;68.00;;;;;;5040027;28;20472;-80
2021/09/19 03:23:25;;;;;;;4.85;3.63;;;18.40;68.00;;;;;;5056514;28;20472;-80
2021/09/19 03:25:51;;;;;;;4.18;3.30;;;18.40;68.00;;;;;;5022717;28;20581;-79
2021/09/19 03:28:17;;;;;;;4.13;3.42;;;18.40;68.10;;;;;;5055778;28;20057;-80
2021/09/19 03:30:43;;;;;;;4.40;3.60;;;18.40;68.10;;;;;;5056700;28;20036;-79
2021/09/19 03:33:08;;;;;;;4.30;3.30;;;18.40;68.10;;;;;;5039841;28;20074;-79
2021/09/19 03:35:34;;;;;;;4.28;3.22;;;18.40;68.80;;;;;;5055708;28;20032;-79
2021/09/19 03:38:00;;;;;;;4.30;3.42;;;18.40;68.10;;;;;;5055670;28;20020;-80
2021/09/19 03:40:26;;;;;;;3.67;3.00;;;18.40;68.10;;;;;;5073549;28;20064;-79
2021/09/19 03:42:52;;;;;;;4.30;3.20;;;18.30;68.10;;;;;;5073835;28;20036;-79
2021/09/19 03:45:18;;;;;;;3.70;3.10;;;18.40;68.20;;;;;;5055809;28;20103;-80
2021/09/19 03:47:45;;;;;;;4.47;3.70;;;18.40;68.30;;;;;;5072255;28;20064;-79
2021/09/19 03:50:11;;;;;;;4.18;3.38;;;18.40;68.20;;;;;;5072467;28;20111;-81
2021/09/19 03:52:38;;;;;;;4.60;3.38;;;18.30;68.20;;;;;;5039301;28;20052;-79
2021/09/19 03:55:05;;;;;;;4.80;3.35;;;18.30;68.30;;;;;;5056208;28;20032;-79
2021/09/19 03:57:30;;;;;;;4.70;3.42;;;18.30;68.30;;;;;;5072876;28;20035;-80
2021/09/19 03:59:56;;;;;;;4.18;3.50;;;18.30;68.40;;;;;;5022404;28;20029;-79
2021/09/19 04:02:22;;;;;;;4.18;3.33;;;18.30;68.40;;;;;;5055265;28;20481;-80
2021/09/19 04:04:47;;;;;;;4.43;3.45;;;18.30;68.40;;;;;;5055430;28;20029;-79
2021/09/19 04:07:13;;;;;;;4.35;3.67;;;18.30;68.40;;;;;;5041528;28;20032;-80
2021/09/19 04:09:39;;;;;;;4.82;3.80;;;18.20;68.40;;;;;;5058912;28;20098;-79
2021/09/19 04:12:05;;;;;;;4.57;3.60;;;18.30;68.40;;;;;;5060405;28;20111;-80
2021/09/19 04:14:30;;;;;;;4.28;3.40;;;18.30;68.50;;;;;;5059558;28;20036;-79
2021/09/19 04:16:56;;;;;;;4.65;3.70;;;18.30;68.50;;;;;;5060018;28;20091;-79
2021/09/19 04:19:22;;;;;;;5.18;3.60;;;18.30;68.50;;;;;;5059227;28;20499;-79
2021/09/19 04:21:48;;;;;;;4.20;3.40;;;18.20;68.50;;;;;;5042623;28;20121;-79
2021/09/19 04:24:14;;;;;;;4.60;3.63;;;18.20;68.50;;;;;;5059808;28;20361;-80
2021/09/19 04:26:40;;;;;;;4.28;3.40;;;18.20;68.50;;;;;;5059060;28;20036;-79
2021/09/19 04:29:06;;;;;;;4.80;3.33;;;18.20;68.50;;;;;;5059045;28;20098;-80
2021/09/19 04:31:32;;;;;;;3.92;3.13;;;18.20;68.60;;;;;;5026644;28;20452;-79
2021/09/19 04:33:58;;;;;;;4.75;3.58;;;18.20;68.60;;;;;;5075459;28;20040;-80
2021/09/19 04:36:24;;;;;;;4.45;3.42;;;18.20;68.60;;;;;;5058869;28;20032;-79
2021/09/19 04:38:49;;;;;;;4.47;3.50;;;18.20;68.60;;;;;;5026552;28;20021;-79
2021/09/19 04:41:15;;;;;;;5.30;3.80;;;18.10;68.60;;;;;;5058767;28;20037;-82
2021/09/19 04:43:41;;;;;;;3.80;3.22;;;18.10;68.60;;;;;;5076175;28;20029;-81
2021/09/19 04:46:07;;;;;;;4.30;3.15;;;18.10;68.60;;;;;;5059007;28;20445;-79
2021/09/19 04:48:33;;;;;;;4.95;3.60;;;18.10;68.60;;;;;;5059374;28;20477;-79
2021/09/19 04:50:58;;;;;;;4.20;3.20;;;18.10;68.60;;;;;;5058608;28;20043;-79
2021/09/19 04:53:24;;;;;;;4.38;3.22;;;18.10;68.60;;;;;;5058898;28;20052;-79
2021/09/19 04:55:50;;;;;;;4.53;3.22;;;18.10;68.70;;;;;;5058419;28;20051;-80
2021/09/19 04:58:16;;;;;;;3.80;3.08;;;18.10;68.70;;;;;;5041889;28;20043;-79
2021/09/19 05:00:41;;;;;;;4.78;3.65;;;18.10;68.70;;;;;;5058401;28;20112;-79
2021/09/19 05:03:07;;;;;;;4.47;3.50;;;18.10;68.70;;;;;;5074910;28;20079;-79
2021/09/19 05:05:33;;;;;;;4.07;3.47;;;18.10;68.80;;;;;;5058310;28;20383;-79
2021/09/19 05:07:58;;;;;;;3.72;2.90;;;18.10;68.80;;;;;;5058103;28;20051;-79
2021/09/19 05:10:24;;;;;;;4.35;3.33;;;18.00;68.70;;;;;;5077024;28;20468;-80
2021/09/19 05:12:50;;;;;;;4.03;3.28;;;18.00;68.70;;;;;;5058153;28;20032;-80
2021/09/19 05:15:16;;;;;;;4.22;3.13;;;18.00;68.80;;;;;;5075199;28;20021;-80
2021/09/19 05:17:41;;;;;;;4.05;3.08;;;18.00;68.80;;;;;;5023989;28;20036;-79
2021/09/19 05:20:08;;;;;;;4.65;3.53;;;18.00;68.80;;;;;;5057952;28;20029;-79
2021/09/19 05:22:33;;;;;;;4.30;3.50;;;18.00;68.80;;;;;;5057852;28;20024;-78
2021/09/19 05:24:59;;;;;;;3.90;2.97;;;18.00;68.80;;;;;;5024969;28;20035;-79
2021/09/19 05:27:25;;;;;;;3.92;3.30;;;18.00;68.80;;;;;;5041270;28;20043;-79
2021/09/19 05:29:51;;;;;;;3.53;2.90;;;18.00;68.80;;;;;;5058560;28;20020;-79
2021/09/19 05:32:16;;;;;;;4.13;3.28;;;18.00;68.80;;;;;;5074585;28;20036;-79
2021/09/19 05:34:43;;;;;;;5.53;3.60;;;17.90;68.80;;;;;;5074689;28;20434;-79
2021/09/19 05:37:08;;;;;;;3.58;3.03;;;17.90;68.80;;;;;;5057982;28;20032;-81
2021/09/19 05:39:34;;;;;;;4.10;3.25;;;17.90;68.80;;;;;;5074593;28;20035;-79
2021/09/19 05:42:00;;;;;;;4.07;3.33;;;17.90;68.90;;;;;;5057595;28;20028;-79
2021/09/19 05:44:26;;;;;;;3.78;3.10;;;17.90;68.90;;;;;;5057832;28;20447;-79
2021/09/19 05:46:52;;;;;;;3.80;3.15;;;17.90;68.90;;;;;;5057815;28;20119;-79
2021/09/19 05:49:18;;;;;;;4.18;3.42;;;17.90;68.90;;;;;;5057267;28;20370;-79
2021/09/19 05:51:44;;;;;;;4.80;2.92;;;17.90;68.90;;;;;;5073961;28;20031;-80
2021/09/19 05:54:09;;;;;;;3.78;3.28;;;17.90;69.30;;;;;;5058203;28;20457;-78
2021/09/19 05:56:35;;;;;;;3.92;3.20;;;17.80;68.90;;;;;;5041639;28;20036;-79
2021/09/19 05:59:01;;;;;;;3.90;3.10;;;17.80;68.90;;;;;;5057242;28;20431;-79
2021/09/19 06:01:26;;;;;;;3.92;2.95;;;17.80;68.90;;;;;;5057249;28;20036;-79
2021/09/19 06:03:52;;;;;;;4.05;3.05;;;17.90;69.00;;;;;;5040666;28;20037;-79
2021/09/19 06:06:18;;;;;;;4.22;3.15;;;17.80;69.00;;;;;;5057122;28;20048;-79
2021/09/19 06:08:44;;;;;;;4.57;3.50;;;17.80;69.00;;;;;;5056763;28;20109;-79
2021/09/19 06:11:09;;;;;;;4.38;3.30;;;17.80;69.00;;;;;;5040888;28;20032;-79
2021/09/19 06:13:35;;;;;;;4.57;3.30;;;17.80;69.00;;;;;;5040425;28;20033;-80
2021/09/19 06:16:01;;;;;;;4.43;3.05;;;17.80;69.00;;;;;;5057637;28;20089;-80
2021/09/19 06:18:31;;;;;;;3.78;3.17;;;17.80;69.00;;;;;;5057666;28;20032;-80
2021/09/19 06:20:57;;;;;;;4.32;3.33;;;17.80;69.10;;;;;;5057735;28;20028;-81
2021/09/19 06:23:23;;;;;;;4.63;3.47;;;17.70;69.00;;;;;;5056740;28;20403;-82
2021/09/19 06:25:49;;;;;;;4.40;3.28;;;17.70;69.00;;;;;;5056689;28;20035;-80
2021/09/19 06:28:15;;;;;;;4.55;3.25;;;17.70;69.00;;;;;;5057028;28;20029;-80
2021/09/19 06:30:40;;;;;;;4.00;3.20;;;17.70;69.00;;;;;;5072730;28;20064;-79
2021/09/19 06:33:06;;;;;;;4.38;3.38;;;17.70;69.00;;;;;;5040227;28;20040;-79
2021/09/19 06:35:32;;;;;;;4.13;3.30;;;17.70;69.10;;;;;;5056851;28;20090;-80
2021/09/19 06:37:57;;;;;;;4.55;3.40;;;17.70;69.10;;;;;;5056962;28;20362;-80
2021/09/19 06:40:23;;;;;;;4.00;3.22;;;17.70;69.10;;;;;;5056738;28;20056;-80
2021/09/19 06:42:49;;;;;;;4.15;3.28;;;17.70;69.10;;;;;;5057227;28;20033;-80
2021/09/19 06:45:15;;;;;;;3.92;2.97;;;17.70;69.10;;;;;;5073082;28;20436;-81
2021/09/19 06:47:43;;;;;;;4.60;3.40;;;17.70;69.10;;;;;;5040637;28;20036;-80
2021/09/19 06:50:12;;;;;;;4.68;3.60;;;17.70;69.10;;;;;;5072715;28;20062;-80
2021/09/19 06:52:37;;;;;;;4.55;3.20;;;17.60;69.10;;;;;;5056309;28;20031;-80
2021/09/19 06:55:04;;;;;;;4.18;3.20;;;17.70;69.20;;;;;;5056869;28;20381;-80
2021/09/19 06:57:30;;;;;;;4.63;3.45;;;17.60;69.20;;;;;;5056218;28;20032;-81
2021/09/19 06:59:55;;;;;;;4.43;3.38;;;17.60;69.20;;;;;;5056420;28;20028;-79
2021/09/19 07:02:21;;;;;;;4.05;3.00;;;17.60;69.20;;;;;;5072751;28;20051;-80
2021/09/19 07:04:47;;;;;;;4.45;3.30;;;17.60;69.20;;;;;;5055963;28;20035;-80
2021/09/19 07:07:14;;;;;;;4.93;3.40;;;17.60;69.20;;;;;;5056805;28;20378;-80
2021/09/19 07:09:42;;;;;;;3.47;2.90;;;17.60;69.30;;;;;;5056795;28;20060;-80
2021/09/19 07:12:07;;;;;;;4.18;3.38;;;17.60;69.30;;;;;;5073681;28;20032;-80
2021/09/19 07:14:33;;;;;;;3.88;3.08;;;17.60;69.30;;;;;;5039735;28;20129;-81
2021/09/19 07:16:59;;;;;;;4.32;3.33;;;17.60;69.30;;;;;;5039611;28;20494;-80
2021/09/19 07:19:25;;;;;;;4.40;3.35;;;17.60;69.30;;;;;;5056194;28;20028;-81
2021/09/19 07:21:50;;;;;;;4.55;3.35;;;17.60;69.40;;;;;;5056464;28;20365;-81
2021/09/19 07:24:16;;;;;;;4.68;3.45;;;17.60;69.40;;;;;;5072626;28;20439;-79
2021/09/19 07:26:42;;;;;;;4.60;3.20;;;17.60;69.40;;;;;;5072775;28;20045;-82
2021/09/19 07:29:08;;;;;;;4.13;2.95;;;17.60;69.40;;;;;;5056044;28;20062;-81
2021/09/19 07:31:34;;;;;;;4.53;3.47;;;17.60;69.40;;;;;;5072480;28;20036;-80
2021/09/19 07:34:02;;;;;;;4.22;3.10;;;17.60;69.50;;;;;;5038933;28;20060;-81
2021/09/19 07:36:39;;;;;;;5.50;3.92;;;17.60;69.50;;;;;;5055742;28;20119;-79
2021/09/19 07:39:07;;;;;;;4.45;3.55;;;17.60;69.60;;;;;;5055761;28;20029;-81
2021/09/19 07:41:34;;;;;;;3.95;3.15;;;17.60;69.40;;;;;;5054675;28;20041;-80
2021/09/19 07:44:01;;;;;;;4.85;3.38;;;17.60;69.50;;;;;;5072132;28;20028;-80
2021/09/19 07:46:26;;;;;;;4.88;3.63;;;17.60;69.50;;;;;;5072181;28;20499;-81
2021/09/19 07:48:53;;;;;;;4.50;3.25;;;17.60;69.50;;;;;;5055931;28;20024;-78
2021/09/19 07:51:20;;;;;;;4.45;3.38;;;17.60;69.50;;;;;;5055487;28;20033;-82
2021/09/19 07:53:46;;;;;;;4.20;3.33;;;17.60;69.50;;;;;;5073064;28;20041;-79
2021/09/19 07:56:12;;;;;;;4.15;3.05;;;17.60;69.60;;;;;;5072992;28;20453;-82
2021/09/19 07:58:38;;;;;;;4.22;3.30;;;17.60;69.60;;;;;;5055982;28;20029;-82
2021/09/19 08:01:04;;;;;;;4.10;3.20;;;17.60;69.60;;;;;;5073169;28;20041;-80
2021/09/19 08:03:30;;;;;;;4.03;3.33;;;17.60;69.60;;;;;;5072212;28;20076;-81
2021/09/19 08:05:56;;;;;;;4.18;3.15;;;17.60;69.60;;;;;;5039016;28;20065;-79
2021/09/19 08:08:22;;;;;;;3.97;2.92;;;17.60;69.60;;;;;;5037160;28;20044;-80
2021/09/19 08:10:48;;;;;;;4.03;2.92;;;17.60;69.60;;;;;;5055059;28;20033;-81
2021/09/19 08:13:14;;;;;;;4.20;3.28;;;17.60;69.60;;;;;;5055372;28;20036;-78
2021/09/19 08:15:40;;;;;;;4.30;3.15;;;17.60;69.60;;;;;;5039185;28;20182;-83
2021/09/19 08:18:05;;;;;;;3.92;3.08;;;17.60;69.60;;;;;;5055146;28;20516;-79
2021/09/19 08:20:31;;;;;;;4.13;3.10;;;17.60;69.70;;;;;;5055446;28;20059;-79
2021/09/19 08:22:57;;;;;;;3.90;3.13;;;17.60;69.70;;;;;;5071721;28;20107;-80
2021/09/19 08:25:25;;;;;;;3.53;2.80;;;17.70;69.80;;;;;;5071811;28;20036;-79
2021/09/19 08:27:51;;;;;;;3.55;2.97;;;17.70;69.80;;;;;;5072021;28;20032;-80
2021/09/19 08:30:17;;;;;;;4.40;3.00;;;17.70;69.80;;;;;;5072681;28;20036;-79
2021/09/19 08:32:43;;;;;;;4.50;3.22;;;17.70;69.80;;;;;;5055321;28;20032;-80
2021/09/19 08:35:12;;;;;;;4.30;3.15;;;17.70;69.90;;;;;;5073570;28;20029;-80
2021/09/19 08:37:38;;;;;;;4.05;2.97;;;17.70;69.90;;;;;;5071789;28;20538;-80
2021/09/19 08:40:08;;;;;;;4.20;3.22;;;17.70;69.90;;;;;;5054954;28;20048;-80
2021/09/19 08:42:36;;;;;;;3.65;2.83;;;17.70;70.00;;;;;;5072966;28;20028;-81
2021/09/19 08:45:03;;;;;;;4.07;3.13;;;17.80;70.10;;;;;;5054935;28;20025;-82
2021/09/19 08:47:30;;;;;;;4.20;3.20;;;17.70;70.00;;;;;;5055111;28;20391;-78
2021/09/19 08:49:58;;;;;;;4.55;3.30;;;17.80;70.10;;;;;;5071782;28;20028;-80
2021/09/19 08:52:23;;;;;;;3.63;2.88;;;17.80;70.10;;;;;;5072946;28;20025;-79
2021/09/19 08:54:49;;;;;;;3.97;3.03;;;17.80;70.10;;;;;;5076744;28;20035;-81
2021/09/19 08:57:15;;;;;;;3.85;2.75;;;17.90;70.10;;;;;;5058657;28;20419;-78
2021/09/19 08:59:46;;;;;;;3.78;3.00;;;17.90;70.00;;;;;;5041849;28;20024;-81
2021/09/19 09:02:14;;;;;;;4.35;3.22;;;18.00;70.10;;;;;;5075026;28;20057;-79
2021/09/19 09:04:41;;;;;;;4.13;2.97;;;18.00;70.00;;;;;;5058258;28;20028;-79
2021/09/19 09:07:07;;;;;;;3.47;2.78;;;18.00;69.90;;;;;;5058332;28;20127;-79
2021/09/19 09:09:32;;;;;;;3.20;2.53;;;18.10;69.90;;;;;;5074932;28;20162;-79
2021/09/19 09:12:07;;;;;;;3.45;2.47;;;18.10;69.80;;;;;;5058243;28;20087;-81
2021/09/19 09:14:51;;;;;;;3.75;2.60;;;18.20;69.80;;;;;;5058386;28;20036;-79
2021/09/19 09:17:29;;;;;;;3.70;2.65;;;18.20;69.70;;;;;;5076121;28;20039;-79
2021/09/19 09:20:02;;;;;;;3.65;2.75;;;18.30;69.70;;;;;;5058228;28;20119;-80
2021/09/19 09:22:33;;;;;;;3.05;2.47;;;18.30;69.60;;;;;;5058832;28;20441;-79
2021/09/19 09:25:11;;;;;;;3.92;2.95;;;18.40;69.50;;;;;;5075606;28;20551;-79
2021/09/19 09:27:38;;;;;;;2.50;2.13;;;18.40;69.50;;;;;;5074359;28;20036;-80
2021/09/19 09:30:16;;;;;;;3.38;2.58;;;18.50;69.40;;;;;;5075630;28;20028;-78
2021/09/19 09:33:02;;;;;;;3.72;2.75;;;18.50;69.40;;;;;;5075407;28;20036;-80
2021/09/19 09:35:38;;;;;;;2.88;2.38;;;18.60;70.00;;;;;;5074877;28;20032;-79
2021/09/19 09:38:17;;;;;;;2.58;2.20;;;18.70;69.90;;;;;;5057311;28;20036;-79
2021/09/19 09:40:44;;;;;;;2.50;2.30;;;18.80;69.30;;;;;;5057318;28;20112;-82
2021/09/19 09:43:14;;;;;;;3.00;2.30;;;18.80;69.10;;;;;;5057707;28;20024;-80
2021/09/19 09:45:43;;;;;;;2.78;2.30;;;18.90;69.10;;;;;;5074979;28;20107;-78
2021/09/19 09:48:32;;;;;;;3.38;2.35;;;18.90;69.00;;;;;;5075557;28;20039;-84
2021/09/19 09:51:01;;;;;;;3.10;2.28;;;19.00;69.10;;;;;;5075246;28;20106;-84
2021/09/19 09:53:28;;;;;;;2.88;2.20;;;19.10;68.90;;;;;;5075155;28;20024;-83
2021/09/19 09:55:56;;;;;;;3.22;2.47;;;19.10;68.90;;;;;;5074754;28;20032;-84
2021/09/19 09:58:22;;;;;;;3.00;2.33;;;19.20;68.90;;;;;;5075846;28;20096;-84
2021/09/19 10:00:54;;;;;;;2.50;2.20;;;19.30;68.80;;;;;;5058914;28;20032;-83
2021/09/19 10:03:20;;;;;;;3.08;2.33;;;19.40;68.80;;;;;;5057734;28;20032;-84
2021/09/19 10:05:46;;;;;;;2.65;2.20;;;19.40;68.70;;;;;;5057090;28;20021;-84
2021/09/19 10:08:13;;;;;;;3.20;2.40;;;19.50;68.60;;;;;;5057990;28;20063;-84
2021/09/19 10:10:49;;;;;;;2.80;2.17;;;19.60;68.60;;;;;;5074642;28;20087;-84
2021/09/19 10:13:15;;;;;;;2.65;2.10;;;19.60;68.50;;;;;;5044118;28;20032;-85
2021/09/19 10:15:43;;;;;;;2.97;2.15;;;19.70;68.50;;;;;;5058118;28;20035;-86
2021/09/19 10:18:10;;;;;;;2.05;1.80;;;19.70;68.40;;;;;;5057730;28;20052;-83
2021/09/19 10:20:41;;;;;;;2.10;1.83;;;19.80;68.30;;;;;;5056939;28;20029;-81
2021/09/19 10:23:18;;;;;;;2.22;1.80;;;19.90;68.30;;;;;;5073442;28;20051;-82
2021/09/19 10:25:53;;;;;;;2.17;1.73;;;20.00;68.10;;;;;;5074309;28;20055;-83
2021/09/19 10:28:22;;;;;;;2.72;1.88;;;20.10;68.10;;;;;;5040440;28;20028;-81
2021/09/19 10:31:20;;;;;;;2.15;1.80;;;20.10;68.00;;;;;;5057089;28;20028;-81
2021/09/19 10:33:55;;;;;;;2.08;1.70;;;20.20;68.10;;;;;;5074128;28;20415;-83
2021/09/19 10:36:22;;;;;;;1.83;1.58;;;20.30;67.90;;;;;;5073821;28;20040;-79
2021/09/19 10:38:48;;;;;;;2.08;1.70;;;20.30;67.70;;;;;;5073259;28;20028;-82
2021/09/19 10:41:16;;;;;;;2.15;1.77;;;20.40;67.70;;;;;;5056262;28;20024;-81
2021/09/19 10:43:53;;;;;;;1.45;1.35;;;20.50;67.70;;;;;;5073128;28;20537;-80
2021/09/19 10:46:38;;;;;;;1.95;1.75;;;20.50;67.60;;;;;;5073109;28;20071;-81
2021/09/19 10:49:19;;;;;;;;;;;20.60;67.70;;;;;;5074683;28;20102;-81
2021/09/19 10:52:00;;;;;;;1.45;1.35;;;20.70;67.30;;;;;;5056597;28;20411;-80
2021/09/19 10:54:51;;;;;;;1.70;1.55;;;20.80;67.40;;;;;;5072765;28;20043;-82
2021/09/19 10:57:21;;;;;;;1.95;1.48;;;20.80;67.40;;;;;;5056954;28;20032;-79
2021/09/19 11:00:15;;;;;;;2.20;1.60;;;20.90;67.30;;;;;;5072848;28;20028;-81
2021/09/19 11:02:58;;;;;;;1.88;1.48;;;20.90;67.50;;;;;;5073533;28;20059;-79
2021/09/19 11:05:24;;;;;;;2.13;1.65;;;21.00;67.30;;;;;;5041969;28;20427;-79
2021/09/19 11:08:04;;;;;;;1.98;1.70;;;21.10;67.40;;;;;;5072109;28;20056;-80
2021/09/19 11:10:30;;;;;;;2.05;1.75;;;21.20;67.50;;;;;;5058184;28;20035;-80
2021/09/19 11:12:56;;;;;;;2.22;1.83;;;21.20;67.40;;;;;;5056192;28;20020;-81
2021/09/19 11:15:24;;;;;;;1.92;1.73;;;21.20;67.50;;;;;;5055879;28;20117;-80
2021/09/19 11:17:51;;;;;;;1.98;1.70;;;21.30;67.50;;;;;;5055882;28;20025;-81
2021/09/19 11:20:24;;;;;;;1.50;1.33;;;21.30;67.50;;;;;;5055818;28;20032;-81
2021/09/19 11:22:58;;;;;;;2.00;1.65;;;21.40;67.70;;;;;;5072148;28;20055;-80
2021/09/19 11:25:24;;;;;;;2.25;1.60;;;21.40;67.60;;;;;;5072375;28;20028;-79
2021/09/19 11:27:51;;;;;;;2.00;1.58;;;21.50;67.60;;;;;;5072081;28;20041;-81
2021/09/19 11:30:23;;;;;;;2.13;1.67;;;21.50;67.60;;;;;;5073626;28;20028;-82
2021/09/19 11:32:49;;;;;;;2.38;1.65;;;21.50;67.50;;;;;;5072382;28;20123;-81
2021/09/19 11:35:15;;;;;;;2.35;1.73;;;21.60;67.60;;;;;;5055862;28;20079;-81
2021/09/19 11:37:41;;;;;;;2.03;1.45;;;21.60;67.70;;;;;;5073585;28;20036;-82
2021/09/19 11:40:09;;;;;;;2.40;1.50;;;21.60;67.70;;;;;;5023531;28;20426;-81
2021/09/19 11:42:38;;;;;;;1.40;1.30;;;21.60;67.70;;;;;;5072860;28;20108;-81
2021/09/19 11:45:09;;;;;;;1.75;1.55;;;21.70;67.80;;;;;;5073545;28;20056;-81
2021/09/19 11:47:37;;;;;;;1.50;1.40;;;21.70;67.80;;;;;;5072748;28;20037;-81
2021/09/19 11:50:06;;;;;;;1.90;1.40;;;21.70;67.80;;;;;;5039241;28;20041;-81
2021/09/19 11:52:32;;;;;;;1.60;1.50;;;21.70;67.80;;;;;;5073062;28;20455;-81
2021/09/19 11:55:01;;;;;;;1.38;1.27;;;21.80;67.90;;;;;;5071796;28;20048;-81
2021/09/19 11:57:27;;;;;;;1.48;1.35;;;21.80;67.90;;;;;;5039896;28;20064;-83
2021/09/19 11:59:53;;;;;;;1.85;1.65;;;21.80;67.80;;;;;;5072141;28;20040;-82
2021/09/19 12:02:18;;;;;;;2.00;1.52;;;21.80;67.30;;;;;;5055389;28;20036;-80
2021/09/19 12:04:46;;;;;;;1.90;1.70;;;21.80;67.00;;;;;;5056202;28;20029;-84
2021/09/19 12:07:14;;;;;;;1.52;1.40;;;21.80;66.90;;;;;;5073773;28;20036;-84
2021/09/19 12:09:57;;;;;;;2.15;1.73;;;21.80;66.80;;;;;;5072824;28;20048;-83
2021/09/19 12:12:23;;;;;;;1.65;1.40;;;21.80;66.80;;;;;;5056030;28;20033;-84
2021/09/19 12:14:52;;;;;;;1.95;1.73;;;21.90;66.80;;;;;;5055938;28;20032;-84
2021/09/19 12:17:28;;;;;;;1.85;1.50;;;21.90;66.90;;;;;;5072354;28;20059;-84
2021/09/19 12:20:00;;;;;;;1.88;1.65;;;21.90;67.00;;;;;;5072536;28;20033;-84
2021/09/19 12:22:27;;;;;;;1.80;1.40;;;21.90;67.00;;;;;;5072663;28;20039;-84
2021/09/19 12:24:57;;;;;;;1.50;1.40;;;21.90;67.00;;;;;;5072736;28;20036;-85
2021/09/19 12:27:25;;;;;;;2.13;1.63;;;22.00;67.10;;;;;;5074017;28;20040;-84
2021/09/19 12:30:07;;;;;;;1.52;1.40;;;22.00;67.10;;;;;;5077515;28;20377;-84
2021/09/19 12:32:36;;;;;;;1.60;1.50;;;22.00;67.20;;;;;;5077755;28;20033;-84
2021/09/19 12:35:09;;;;;;;1.70;1.38;;;22.00;67.10;;;;;;5075880;28;20469;-84
2021/09/19 12:37:36;;;;;;;1.95;1.50;;;22.10;67.10;;;;;;5076501;28;20068;-84
2021/09/19 12:40:20;;;;;;;1.77;1.20;;;22.00;67.00;;;;;;5075897;28;20123;-83
2021/09/19 12:42:48;;;;;;;1.77;1.40;;;22.10;67.10;;;;;;5059660;28;20028;-84
2021/09/19 12:45:16;;;;;;;1.50;1.40;;;22.10;66.90;;;;;;5042714;28;20311;-86
2021/09/19 12:47:43;;;;;;;1.33;1.23;;;22.10;66.90;;;;;;5058982;28;20082;-83
2021/09/19 12:50:14;;;;;;;1.55;1.40;;;22.10;66.80;;;;;;5075132;28;20061;-83